Latest Weather Observations for Grove

IDT60801

Issued at 5:35 am EST Sunday 24 August 2014 (issued every 30 minutes, with the page automatically refreshed every 10 minutes)

About weather observations | Map of weather stations | Latest weather observations for TAS | Other Formats
Station Details ID: 094220 Name: GROVE (RESEARCH STATION) Lat: -42.99 Lon: 147.07 Height: 65.0 m
Data from the previous 72 hours. | See also: Recent months at Grove
Date/Time
EST
Temp
°C
App
Temp
°C
Dew
Point
Rel
Hum
%
Delta-T
°C
Wind Press
QNH
hPa
Press
MSL
hPa
Rain
since 9 am
mm
Dir
 
Spd
km/h
Gust
km/h
Spd
kts
Gust
kts
24/05:30am 3.8 1.3 3.8 100 0.0 SSE 6 9 3 5 - - 0.0
24/05:00am 3.4 0.6 3.4 100 0.0 S 7 13 4 7 - - 0.0
24/04:30am 3.9 1.8 3.9 100 0.0 W 4 9 2 5 - - 0.0
24/04:00am 4.9 1.2 4.7 99 0.1 ENE 13 22 7 12 - - 0.0
24/03:30am 3.9 0.5 3.9 100 0.0 ENE 11 15 6 8 - - 0.0
24/03:00am 5.1 2.8 4.9 99 0.1 ENE 6 11 3 6 - - 0.0
24/02:30am 4.9 1.7 4.9 100 0.0 WSW 11 20 6 11 - - 0.0
24/02:00am 5.2 2.4 5.0 99 0.1 W 9 17 5 9 - - 0.0
24/01:30am 3.8 1.7 3.8 100 0.0 ESE 4 7 2 4 - - 0.0
24/01:00am 4.1 2.8 4.1 100 0.0 CALM 0 0 0 0 - - 0.0
24/12:30am 4.8 2.8 4.3 97 0.2 SSW 4 7 2 4 - - 0.0
24/12:00am 5.1 3.9 4.6 97 0.2 SSW 0 0 0 0 - - 0.0
 
Date/Time
EST
Temp
°C
App
Temp
°C
Dew
Point
Rel
Hum
%
Delta-T
°C
Wind Press
QNH
hPa
Press
MSL
hPa
Rain
since 9 am
mm
Dir
 
Spd
km/h
Gust
km/h
Spd
kts
Gust
kts
23/11:30pm 5.6 4.5 4.9 95 0.3 CALM 0 4 0 2 - - 0.0
23/11:00pm 5.6 4.5 4.9 95 0.3 CALM 0 6 0 3 - - 0.0
23/10:30pm 6.1 4.7 5.6 97 0.2 NNW 2 6 1 3 - - 0.0
23/10:00pm 6.0 4.2 5.5 97 0.2 WNW 4 7 2 4 - - 0.0
23/09:30pm 6.9 4.9 6.2 95 0.3 ENE 6 9 3 5 - - 0.0
23/09:00pm 7.6 6.4 6.3 91 0.6 S 2 11 1 6 - - 0.0
23/08:30pm 7.3 5.2 6.0 91 0.6 ENE 6 7 3 4 - - 0.0
23/08:00pm 8.6 7.5 6.9 89 0.8 NW 2 6 1 3 - - 0.0
23/07:30pm 9.1 7.3 7.0 87 1.0 NW 6 9 3 5 - - 0.0
23/07:00pm 10.2 8.3 6.8 79 1.6 WNW 6 7 3 4 - - 0.0
23/06:30pm 11.4 10.0 7.2 75 2.0 N 4 13 2 7 - - 0.0
23/06:00pm 12.0 11.4 7.5 74 2.2 NNE 0 9 0 5 - - 0.0
23/05:30pm 14.8 12.6 6.3 56 4.1 N 7 13 4 7 - - 0.0
23/05:00pm 15.4 13.0 6.9 57 4.2 N 9 11 5 6 - - 0.0
23/04:30pm 16.6 13.6 6.2 50 5.1 NE 11 20 6 11 - - 0.0
23/04:00pm 16.8 14.1 5.6 47 5.4 NNE 9 19 5 10 - - 0.0
23/03:30pm 17.5 14.2 6.4 48 5.5 ENE 13 19 7 10 - - 0.0
23/03:00pm 17.2 14.8 5.1 44 5.8 ENE 7 17 4 9 - - 0.0
23/02:30pm 16.6 13.9 5.6 48 5.3 ENE 9 15 5 8 - - 0.0
23/02:00pm 17.2 14.5 5.7 46 5.6 N 9 15 5 8 - - 0.0
23/01:30pm 17.2 14.2 5.9 47 5.5 N 11 24 6 13 - - 0.0
23/01:00pm 16.4 13.2 5.1 47 5.4 NNW 11 19 6 10 - - 0.0
23/12:30pm 15.5 13.2 5.5 51 4.8 NNE 7 13 4 7 - - 0.0
23/12:00pm 16.0 11.6 4.5 46 5.4 N 17 28 9 15 - - 0.0
23/11:30am 15.9 12.7 4.9 48 5.2 N 11 26 6 14 - - 0.0
23/11:00am 13.0 11.2 7.9 71 2.5 WSW 7 9 4 5 - - 0.0
23/10:30am 10.8 9.3 6.6 75 2.0 NW 4 9 2 5 - - 0.0
23/10:00am 9.2 7.9 6.2 81 1.4 NW 2 7 1 4 - - 0.0
23/09:30am 6.6 4.4 5.2 91 0.6 W 6 9 3 5 - - 0.0
23/09:00am 5.2 3.2 4.5 95 0.3 WSW 4 11 2 6 - - 0.0
23/08:30am 4.8 2.8 4.3 97 0.2 SE 4 6 2 3 - - 0.0
23/08:00am 1.9 0.2 1.9 100 0.0 CALM 0 0 0 0 - - 0.0
23/07:30am 0.6 -2.1 0.6 100 0.0 NE 4 9 2 5 - - 0.0
23/07:00am 0.3 - - - - NE 2 7 1 4 - - 0.0
23/06:30am 0.3 -1.6 0.3 100 0.0 CALM 0 0 0 0 - - 0.0
23/06:00am 0.6 -1.7 0.3 98 0.1 ENE 2 4 1 2 - - 0.0
23/05:30am 0.6 -1.3 0.6 100 0.0 CALM 0 9 0 5 - - 0.0
23/05:00am 0.6 -1.3 0.6 100 0.0 CALM 0 9 0 5 - - 0.0
23/04:30am 0.8 -1.1 0.8 100 0.0 CALM 0 0 0 0 - - 0.0
23/04:00am 1.0 -1.6 1.0 100 0.0 NNE 4 7 2 4 - - 0.0
23/03:30am 1.2 -1.8 0.9 98 0.1 ENE 6 7 3 4 - - 0.0
23/03:00am 2.0 -0.4 2.0 100 0.0 E 4 6 2 3 - - 0.0
23/02:30am 1.9 -0.5 1.9 100 0.0 N 4 11 2 6 - - 0.0
23/02:00am 2.4 0.4 2.1 98 0.1 NE 2 7 1 4 - - 0.0
23/01:30am 3.3 1.8 2.8 97 0.2 CALM 0 4 0 2 - - 0.0
23/01:00am 4.0 2.6 3.8 99 0.1 CALM 0 0 0 0 - - 0.0
23/12:30am 4.4 2.2 3.4 93 0.4 S 4 7 2 4 - - 0.0
23/12:00am 4.9 2.8 4.0 94 0.4 N 4 15 2 8 - - 0.0
 
Date/Time
EST
Temp
°C
App
Temp
°C
Dew
Point
Rel
Hum
%
Delta-T
°C
Wind Press
QNH
hPa
Press
MSL
hPa
Rain
since 9 am
mm
Dir
 
Spd
km/h
Gust
km/h
Spd
kts
Gust
kts
22/11:30pm 5.2 1.8 3.8 91 0.6 E 11 17 6 9 - - 0.0
22/11:00pm 4.5 1.9 4.0 97 0.2 ENE 7 11 4 6 - - 0.0
22/10:30pm 4.6 1.9 3.9 95 0.3 NE 7 9 4 5 - - 0.0
22/10:00pm 4.5 1.3 3.3 92 0.5 NNE 9 13 5 7 - - 0.0
22/09:30pm 4.9 2.3 4.0 94 0.4 NE 7 11 4 6 - - 0.0
22/09:00pm 5.4 3.0 4.5 94 0.4 NNE 6 11 3 6 - - 0.0
22/08:30pm 5.7 3.2 4.8 94 0.4 NE 7 11 4 6 - - 0.0
22/08:00pm 5.8 3.3 4.9 94 0.4 NNE 7 11 4 6 - - 0.0
22/07:30pm 6.4 4.2 5.3 93 0.5 NNE 6 9 3 5 - - 0.0
22/07:00pm 7.5 5.9 6.4 93 0.5 N 4 9 2 5 - - 0.0
22/06:30pm 8.1 6.0 6.6 90 0.7 N 7 9 4 5 - - 0.0
22/06:00pm 9.2 7.4 7.1 87 1.0 NE 6 9 3 5 - - 0.0
22/05:30pm 11.1 9.1 7.1 76 1.9 WNW 7 11 4 6 - - 0.0
22/05:00pm 15.2 13.3 6.8 57 4.1 NE 6 9 3 5 - - 0.0
22/04:30pm 16.1 13.9 5.5 49 5.1 ESE 6 7 3 4 - - 0.0
22/04:00pm 16.8 15.9 5.9 48 5.3 CALM 0 0 0 0 - - 0.0
22/03:30pm 15.9 14.2 6.0 52 4.8 E 4 7 2 4 - - 0.0
22/03:00pm 16.1 13.5 6.0 51 4.9 N 9 9 5 5 - - 0.0
22/02:30pm 15.8 12.2 4.8 48 5.2 N 13 28 7 15 - - 0.0
22/02:00pm 15.7 13.8 4.9 48 5.1 NNW 4 9 2 5 - - 0.0
22/01:30pm 15.9 13.7 5.2 49 5.1 NW 6 11 3 6 - - 0.0
22/01:00pm 15.9 13.1 5.2 49 5.1 ENE 9 15 5 8 - - 0.0
22/12:30pm 15.3 13.5 7.2 58 4.0 NW 6 11 3 6 - - 0.0
22/12:00pm 11.0 10.2 8.1 82 1.4 WNW 2 11 1 6 - - 0.0
22/11:30am 8.9 7.0 7.4 90 0.7 WSW 7 13 4 7 - - 0.0
22/11:00am 7.1 5.1 6.4 95 0.3 W 6 11 3 6 - - 0.0
22/10:30am 4.6 2.1 4.6 100 0.0 WSW 7 9 4 5 - - 0.0
22/10:00am 3.9 1.2 3.7 99 0.1 WSW 7 13 4 7 - - 0.0
22/09:30am 3.3 0.1 3.3 100 0.0 WSW 9 17 5 9 - - 0.0
22/09:00am 3.2 0.4 3.2 100 0.0 W 7 11 4 6 - - 0.2
22/08:30am 2.9 0.1 2.9 100 0.0 SW 7 13 4 7 - - 0.2
22/08:00am 2.4 -0.9 2.4 100 0.0 ENE 9 17 5 9 - - 0.2
22/07:30am 2.4 -0.3 2.4 100 0.0 ENE 6 9 3 5 - - 0.2
22/07:00am 2.3 0.7 2.3 100 0.0 CALM 0 0 0 0 - - 0.2
22/06:30am 2.3 0.7 2.3 100 0.0 CALM 0 2 0 1 - - 0.2
22/06:00am 2.3 -0.5 2.3 100 0.0 E 6 9 3 5 - - 0.2
22/05:30am 2.4 0.8 2.4 100 0.0 CALM 0 2 0 1 - - 0.2
22/05:00am 2.5 -0.2 2.5 100 0.0 E 6 9 3 5 - - 0.2
22/04:30am 2.7 0.8 2.7 100 0.0 ENE 2 7 1 4 - - 0.0
22/04:00am 2.6 -0.1 2.6 100 0.0 NNE 6 7 3 4 - - 0.0
22/03:30am 2.5 0.5 2.5 100 0.0 SSE 2 9 1 5 - - 0.0
22/03:00am 2.4 0.0 2.4 100 0.0 S 4 6 2 3 - - 0.0
22/02:30am 1.7 -1.4 1.4 98 0.1 SE 7 11 4 6 - - 0.0
22/02:00am 0.6 -2.4 0.6 100 0.0 ENE 6 9 3 5 - - 0.0
22/01:30am 0.1 - - - - NNW 6 9 3 5 - - 0.0
22/01:00am 0.6 -1.3 0.6 100 0.0 CALM 0 0 0 0 - - 0.0
22/12:30am 0.7 -1.6 0.7 100 0.0 N 2 6 1 3 - - 0.0
22/12:00am 1.3 -1.6 1.3 100 0.0 ENE 6 6 3 3 - - 0.0
 
Date/Time
EST
Temp
°C
App
Temp
°C
Dew
Point
Rel
Hum
%
Delta-T
°C
Wind Press
QNH
hPa
Press
MSL
hPa
Rain
since 9 am
mm
Dir
 
Spd
km/h
Gust
km/h
Spd
kts
Gust
kts
21/11:30pm 1.2 -1.7 1.2 100 0.0 NE 6 7 3 4 - - 0.0
21/11:00pm 1.6 -1.3 1.3 98 0.1 NNE 6 7 3 4 - - 0.0
21/10:30pm 1.9 -1.0 1.6 98 0.1 NE 6 7 3 4 - - 0.0
21/10:00pm 2.4 0.0 2.4 100 0.0 NE 4 7 2 4 - - 0.0
21/09:30pm 3.0 1.1 2.8 99 0.1 ENE 2 7 1 4 - - 0.0
21/09:00pm 3.8 2.4 3.3 97 0.2 NE 0 7 0 4 - - 0.0
21/08:30pm 4.3 1.6 3.8 97 0.2 NNE 7 11 4 6 - - 0.0
21/08:00pm 4.7 2.2 3.7 93 0.4 NE 6 11 3 6 - - 0.0
21/07:30pm 5.2 2.6 4.3 94 0.4 NE 7 9 4 5 - - 0.0
21/07:00pm 6.4 5.3 5.0 91 0.6 CALM 0 0 0 0 - - 0.0
21/06:30pm 7.5 6.5 5.7 88 0.8 CALM 0 7 0 4 - - 0.0
21/06:00pm 9.7 7.4 5.5 75 1.9 NNW 7 11 4 6 - - 0.0
21/05:30pm 11.4 9.6 5.3 66 2.8 NNE 4 9 2 5 - - 0.0
21/05:00pm 12.3 8.4 5.2 62 3.3 E 15 22 8 12 - - 0.0
21/04:30pm 13.5 9.9 4.9 56 4.0 E 13 19 7 10 - - 0.0
21/04:00pm 14.1 10.4 4.6 52 4.4 E 13 17 7 9 - - 0.0
21/03:30pm 14.4 11.1 4.8 52 4.5 E 11 17 6 9 - - 0.0
21/03:00pm 14.9 11.8 5.4 53 4.5 ENE 11 15 6 8 - - 0.0
21/02:30pm 15.3 12.4 4.4 48 5.1 N 9 17 5 9 - - 0.0
21/02:00pm 15.1 12.9 6.2 55 4.3 ENE 7 11 4 6 - - 0.0
21/01:30pm 14.2 13.3 6.1 58 3.9 CALM 0 0 0 0 - - 0.0
21/01:00pm 12.0 10.2 5.6 65 3.0 SW 4 7 2 4 - - 0.0
21/12:30pm 11.2 9.5 6.1 71 2.4 NW 4 7 2 4 - - 0.0
21/12:00pm 8.7 7.4 5.9 82 1.3 SW 2 6 1 3 - - 0.0
21/11:30am 6.9 5.6 6.0 94 0.4 WSW 2 7 1 4 - - 0.0
21/11:00am 5.8 4.7 5.1 95 0.3 CALM 0 0 0 0 - - 0.0
21/10:30am 5.0 3.8 4.8 99 0.1 CALM 0 0 0 0 - - 0.0
21/10:00am 4.7 2.7 4.5 99 0.1 N 4 9 2 5 - - 0.0
21/09:30am 4.2 2.2 4.2 100 0.0 NNE 4 6 2 3 - - 0.0
21/09:00am 3.2 0.6 3.0 99 0.1 NE 6 7 3 4 - - 0.0
21/08:30am 1.8 0.0 1.5 98 0.1 CALM 0 0 0 0 - - 0.0
21/08:00am 0.7 -1.2 0.4 98 0.1 CALM 0 0 0 0 - - 0.0
21/07:30am -0.2 - - - - CALM 0 0 0 0 - - 0.0
21/07:00am -0.8 - - - - CALM 0 0 0 0 - - 0.0
21/06:30am -1.2 - - - - N 4 7 2 4 - - 0.0
21/06:00am -0.5 - - - - ENE 6 7 3 4 - - 0.0

Other Formats:

Comma delimited format used in spreadsheet applications
http://www.bom.gov.au/fwo/IDT60801/IDT60801.95977.axf

JavaScript Object Notation format (JSON) in row-major order
http://www.bom.gov.au/fwo/IDT60801/IDT60801.95977.json